sensor_id;sensor_type;location;lat;lon;timestamp;temperature;humidity
8633;DHT22;4354;49.832;10.746;2024-01-27T00:02:07;2.60;1.00
8633;DHT22;4354;49.832;10.746;2024-01-27T00:04:38;2.50;1.00
8633;DHT22;4354;49.832;10.746;2024-01-27T00:07:04;2.30;1.00
8633;DHT22;4354;49.832;10.746;2024-01-27T00:09:31;2.20;1.00
8633;DHT22;4354;49.832;10.746;2024-01-27T00:11:58;2.20;1.00
8633;DHT22;4354;49.832;10.746;2024-01-27T00:14:25;2.10;1.00
8633;DHT22;4354;49.832;10.746;2024-01-27T00:16:52;2.00;1.00
8633;DHT22;4354;49.832;10.746;2024-01-27T00:19:19;1.90;1.00
8633;DHT22;4354;49.832;10.746;2024-01-27T00:21:45;1.90;1.00
8633;DHT22;4354;49.832;10.746;2024-01-27T00:24:13;1.80;1.00
8633;DHT22;4354;49.832;10.746;2024-01-27T00:26:40;1.80;1.00
8633;DHT22;4354;49.832;10.746;2024-01-27T00:29:07;1.80;1.00
8633;DHT22;4354;49.832;10.746;2024-01-27T00:31:34;1.70;1.00
8633;DHT22;4354;49.832;10.746;2024-01-27T00:34:01;1.70;1.00
8633;DHT22;4354;49.832;10.746;2024-01-27T00:36:28;1.60;1.00
8633;DHT22;4354;49.832;10.746;2024-01-27T00:38:55;1.60;4.30
8633;DHT22;4354;49.832;10.746;2024-01-27T00:41:22;1.70;20.90
8633;DHT22;4354;49.832;10.746;2024-01-27T00:43:49;1.90;26.90
8633;DHT22;4354;49.832;10.746;2024-01-27T00:46:16;2.00;20.50
8633;DHT22;4354;49.832;10.746;2024-01-27T00:48:42;2.20;1.00
8633;DHT22;4354;49.832;10.746;2024-01-27T00:51:09;2.20;1.00
8633;DHT22;4354;49.832;10.746;2024-01-27T00:53:36;2.30;1.00
8633;DHT22;4354;49.832;10.746;2024-01-27T00:56:03;2.30;1.00
8633;DHT22;4354;49.832;10.746;2024-01-27T00:58:30;2.20;1.00
8633;DHT22;4354;49.832;10.746;2024-01-27T01:00:57;2.10;1.00
8633;DHT22;4354;49.832;10.746;2024-01-27T01:03:25;2.00;1.00
8633;DHT22;4354;49.832;10.746;2024-01-27T01:05:52;2.00;1.00
8633;DHT22;4354;49.832;10.746;2024-01-27T01:08:19;1.90;1.00
8633;DHT22;4354;49.832;10.746;2024-01-27T01:10:45;1.80;1.00
8633;DHT22;4354;49.832;10.746;2024-01-27T01:13:12;1.70;1.00
8633;DHT22;4354;49.832;10.746;2024-01-27T01:15:39;1.60;1.00
8633;DHT22;4354;49.832;10.746;2024-01-27T01:18:06;1.60;1.00
8633;DHT22;4354;49.832;10.746;2024-01-27T01:20:33;1.50;1.00
8633;DHT22;4354;49.832;10.746;2024-01-27T01:22:59;1.50;1.00
8633;DHT22;4354;49.832;10.746;2024-01-27T01:25:26;1.30;1.00
8633;DHT22;4354;49.832;10.746;2024-01-27T01:27:53;1.30;3.90
8633;DHT22;4354;49.832;10.746;2024-01-27T01:30:20;1.10;7.00
8633;DHT22;4354;49.832;10.746;2024-01-27T01:32:47;1.00;18.00
8633;DHT22;4354;49.832;10.746;2024-01-27T01:35:14;1.00;31.30
8633;DHT22;4354;49.832;10.746;2024-01-27T01:37:41;1.00;29.10
8633;DHT22;4354;49.832;10.746;2024-01-27T01:40:08;0.90;44.00
8633;DHT22;4354;49.832;10.746;2024-01-27T01:42:35;0.90;51.20
8633;DHT22;4354;49.832;10.746;2024-01-27T01:45:02;0.90;57.50
8633;DHT22;4354;49.832;10.746;2024-01-27T01:47:29;0.90;64.80
8633;DHT22;4354;49.832;10.746;2024-01-27T01:49:55;0.80;60.70
8633;DHT22;4354;49.832;10.746;2024-01-27T01:52:23;0.80;68.10
8633;DHT22;4354;49.832;10.746;2024-01-27T01:54:50;0.80;68.10
8633;DHT22;4354;49.832;10.746;2024-01-27T01:57:17;0.80;69.80
8633;DHT22;4354;49.832;10.746;2024-01-27T01:59:44;0.70;67.60
8633;DHT22;4354;49.832;10.746;2024-01-27T02:02:12;0.70;68.00
8633;DHT22;4354;49.832;10.746;2024-01-27T02:04:45;0.70;73.30
8633;DHT22;4354;49.832;10.746;2024-01-27T02:07:14;0.60;71.40
8633;DHT22;4354;49.832;10.746;2024-01-27T02:09:42;0.50;68.80
8633;DHT22;4354;49.832;10.746;2024-01-27T02:12:08;0.40;67.20
8633;DHT22;4354;49.832;10.746;2024-01-27T02:14:35;0.30;69.80
8633;DHT22;4354;49.832;10.746;2024-01-27T02:17:02;0.30;74.80
8633;DHT22;4354;49.832;10.746;2024-01-27T02:19:30;0.30;85.00
8633;DHT22;4354;49.832;10.746;2024-01-27T02:21:57;0.40;92.30
8633;DHT22;4354;49.832;10.746;2024-01-27T02:24:24;0.30;91.50
8633;DHT22;4354;49.832;10.746;2024-01-27T02:26:51;0.30;92.90
8633;DHT22;4354;49.832;10.746;2024-01-27T02:29:18;0.30;94.70
8633;DHT22;4354;49.832;10.746;2024-01-27T02:31:46;0.30;94.50
8633;DHT22;4354;49.832;10.746;2024-01-27T02:34:13;0.30;93.30
8633;DHT22;4354;49.832;10.746;2024-01-27T02:36:40;0.30;97.00
8633;DHT22;4354;49.832;10.746;2024-01-27T02:39:06;0.30;95.50
8633;DHT22;4354;49.832;10.746;2024-01-27T02:41:34;0.20;95.90
8633;DHT22;4354;49.832;10.746;2024-01-27T02:44:05;0.20;95.70
8633;DHT22;4354;49.832;10.746;2024-01-27T02:46:32;0.10;94.00
8633;DHT22;4354;49.832;10.746;2024-01-27T02:48:59;0.10;95.50
8633;DHT22;4354;49.832;10.746;2024-01-27T02:51:26;0.00;94.00
8633;DHT22;4354;49.832;10.746;2024-01-27T02:53:53;0.00;93.10
8633;DHT22;4354;49.832;10.746;2024-01-27T02:56:19;-0.10;93.80
8633;DHT22;4354;49.832;10.746;2024-01-27T02:58:46;-0.10;94.60
8633;DHT22;4354;49.832;10.746;2024-01-27T03:01:13;-0.10;97.90
8633;DHT22;4354;49.832;10.746;2024-01-27T03:03:40;-0.20;96.80
8633;DHT22;4354;49.832;10.746;2024-01-27T03:06:08;-0.20;95.20
8633;DHT22;4354;49.832;10.746;2024-01-27T03:08:34;-0.20;99.90
8633;DHT22;4354;49.832;10.746;2024-01-27T03:11:01;-0.20;98.30
8633;DHT22;4354;49.832;10.746;2024-01-27T03:13:28;-0.20;99.90
8633;DHT22;4354;49.832;10.746;2024-01-27T03:15:56;-0.20;99.90
8633;DHT22;4354;49.832;10.746;2024-01-27T03:18:22;-0.10;99.90
8633;DHT22;4354;49.832;10.746;2024-01-27T03:20:51;-0.10;99.90
8633;DHT22;4354;49.832;10.746;2024-01-27T03:23:18;0.00;99.90
8633;DHT22;4354;49.832;10.746;2024-01-27T03:25:45;0.00;99.90
8633;DHT22;4354;49.832;10.746;2024-01-27T03:28:12;0.10;99.90
8633;DHT22;4354;49.832;10.746;2024-01-27T03:30:39;0.10;99.90
8633;DHT22;4354;49.832;10.746;2024-01-27T03:33:05;0.10;99.90
8633;DHT22;4354;49.832;10.746;2024-01-27T03:35:37;0.20;99.90
8633;DHT22;4354;49.832;10.746;2024-01-27T03:38:05;0.20;99.90
8633;DHT22;4354;49.832;10.746;2024-01-27T03:40:33;0.40;99.90
8633;DHT22;4354;49.832;10.746;2024-01-27T03:43:00;0.50;99.90
8633;DHT22;4354;49.832;10.746;2024-01-27T03:45:26;0.70;99.90
8633;DHT22;4354;49.832;10.746;2024-01-27T03:47:53;0.80;93.10
8633;DHT22;4354;49.832;10.746;2024-01-27T03:50:20;0.80;82.50
8633;DHT22;4354;49.832;10.746;2024-01-27T03:52:47;0.90;76.30
8633;DHT22;4354;49.832;10.746;2024-01-27T03:55:14;0.90;65.20
8633;DHT22;4354;49.832;10.746;2024-01-27T03:57:41;0.90;57.40
8633;DHT22;4354;49.832;10.746;2024-01-27T04:00:08;1.00;40.00
8633;DHT22;4354;49.832;10.746;2024-01-27T04:02:35;1.00;23.90
8633;DHT22;4354;49.832;10.746;2024-01-27T04:05:02;0.90;13.40
8633;DHT22;4354;49.832;10.746;2024-01-27T04:07:29;0.80;5.80
8633;DHT22;4354;49.832;10.746;2024-01-27T04:09:55;0.70;7.80
8633;DHT22;4354;49.832;10.746;2024-01-27T04:12:22;0.60;4.50
8633;DHT22;4354;49.832;10.746;2024-01-27T04:14:49;0.50;9.80
8633;DHT22;4354;49.832;10.746;2024-01-27T04:17:16;0.40;6.80
8633;DHT22;4354;49.832;10.746;2024-01-27T04:19:43;0.20;6.30
8633;DHT22;4354;49.832;10.746;2024-01-27T04:22:10;0.10;14.00
8633;DHT22;4354;49.832;10.746;2024-01-27T04:24:37;0.00;25.70
8633;DHT22;4354;49.832;10.746;2024-01-27T04:27:04;0.00;45.40
8633;DHT22;4354;49.832;10.746;2024-01-27T04:29:31;0.10;57.50
8633;DHT22;4354;49.832;10.746;2024-01-27T04:31:58;0.10;58.70
8633;DHT22;4354;49.832;10.746;2024-01-27T04:34:24;0.20;69.30
8633;DHT22;4354;49.832;10.746;2024-01-27T04:36:51;0.20;72.10
8633;DHT22;4354;49.832;10.746;2024-01-27T04:39:19;0.30;59.20
8633;DHT22;4354;49.832;10.746;2024-01-27T04:41:46;0.20;51.30
8633;DHT22;4354;49.832;10.746;2024-01-27T04:44:12;0.20;43.70
8633;DHT22;4354;49.832;10.746;2024-01-27T04:46:39;0.20;32.80
8633;DHT22;4354;49.832;10.746;2024-01-27T04:49:06;0.10;27.10
8633;DHT22;4354;49.832;10.746;2024-01-27T04:51:33;0.00;27.50
8633;DHT22;4354;49.832;10.746;2024-01-27T04:54:00;-0.10;23.90
8633;DHT22;4354;49.832;10.746;2024-01-27T04:56:27;-0.20;25.30
8633;DHT22;4354;49.832;10.746;2024-01-27T04:58:53;-0.30;27.80
8633;DHT22;4354;49.832;10.746;2024-01-27T05:01:20;-0.40;33.70
8633;DHT22;4354;49.832;10.746;2024-01-27T05:03:47;-0.50;37.60
8633;DHT22;4354;49.832;10.746;2024-01-27T05:06:14;-0.60;43.50
8633;DHT22;4354;49.832;10.746;2024-01-27T05:08:41;-0.60;49.30
8633;DHT22;4354;49.832;10.746;2024-01-27T05:11:09;-0.70;52.40
8633;DHT22;4354;49.832;10.746;2024-01-27T05:13:36;-0.70;56.40
8633;DHT22;4354;49.832;10.746;2024-01-27T05:16:04;-0.70;72.60
8633;DHT22;4354;49.832;10.746;2024-01-27T05:18:31;-0.80;71.80
8633;DHT22;4354;49.832;10.746;2024-01-27T05:20:58;-0.90;72.90
8633;DHT22;4354;49.832;10.746;2024-01-27T05:23:25;-0.90;77.00
8633;DHT22;4354;49.832;10.746;2024-01-27T05:25:52;-0.90;83.60
8633;DHT22;4354;49.832;10.746;2024-01-27T05:28:19;-1.00;77.50
8633;DHT22;4354;49.832;10.746;2024-01-27T05:30:47;-1.10;74.80
8633;DHT22;4354;49.832;10.746;2024-01-27T05:33:14;-1.10;79.30
8633;DHT22;4354;49.832;10.746;2024-01-27T05:35:41;-1.10;83.20
8633;DHT22;4354;49.832;10.746;2024-01-27T05:38:08;-1.20;81.60
8633;DHT22;4354;49.832;10.746;2024-01-27T05:40:35;-1.20;91.00
8633;DHT22;4354;49.832;10.746;2024-01-27T05:43:06;-1.20;90.90
8633;DHT22;4354;49.832;10.746;2024-01-27T05:45:33;-1.30;87.50
8633;DHT22;4354;49.832;10.746;2024-01-27T05:48:00;-1.30;87.10
8633;DHT22;4354;49.832;10.746;2024-01-27T05:50:27;-1.40;86.90
8633;DHT22;4354;49.832;10.746;2024-01-27T05:52:54;-1.40;90.50
8633;DHT22;4354;49.832;10.746;2024-01-27T05:55:21;-1.50;91.20
8633;DHT22;4354;49.832;10.746;2024-01-27T05:57:48;-1.50;92.70
8633;DHT22;4354;49.832;10.746;2024-01-27T06:00:14;-1.40;96.60
8633;DHT22;4354;49.832;10.746;2024-01-27T06:02:41;-1.40;97.90
8633;DHT22;4354;49.832;10.746;2024-01-27T06:05:08;-1.50;97.20
8633;DHT22;4354;49.832;10.746;2024-01-27T06:07:38;-1.40;99.90
8633;DHT22;4354;49.832;10.746;2024-01-27T06:10:08;-1.40;98.60
8633;DHT22;4354;49.832;10.746;2024-01-27T06:12:36;-1.50;98.10
8633;DHT22;4354;49.832;10.746;2024-01-27T06:15:03;-1.50;98.20
8633;DHT22;4354;49.832;10.746;2024-01-27T06:17:30;-1.50;99.90
8633;DHT22;4354;49.832;10.746;2024-01-27T06:19:57;-1.50;99.10
8633;DHT22;4354;49.832;10.746;2024-01-27T06:22:24;-1.50;99.90
8633;DHT22;4354;49.832;10.746;2024-01-27T06:24:50;-1.50;99.90
8633;DHT22;4354;49.832;10.746;2024-01-27T06:27:18;-1.40;99.90
8633;DHT22;4354;49.832;10.746;2024-01-27T06:29:44;-1.30;99.90
8633;DHT22;4354;49.832;10.746;2024-01-27T06:32:11;-1.30;99.90
8633;DHT22;4354;49.832;10.746;2024-01-27T06:34:39;-1.40;99.90
8633;DHT22;4354;49.832;10.746;2024-01-27T06:37:06;-1.40;99.90
8633;DHT22;4354;49.832;10.746;2024-01-27T06:39:33;-1.50;99.90
8633;DHT22;4354;49.832;10.746;2024-01-27T06:42:00;-1.50;99.90
8633;DHT22;4354;49.832;10.746;2024-01-27T06:44:27;-1.50;99.90
8633;DHT22;4354;49.832;10.746;2024-01-27T06:46:54;-1.50;99.90
8633;DHT22;4354;49.832;10.746;2024-01-27T06:49:20;-1.50;99.90
8633;DHT22;4354;49.832;10.746;2024-01-27T06:51:48;-1.40;99.90
8633;DHT22;4354;49.832;10.746;2024-01-27T06:54:15;-1.40;99.90
8633;DHT22;4354;49.832;10.746;2024-01-27T06:56:41;-1.50;99.90
8633;DHT22;4354;49.832;10.746;2024-01-27T06:59:08;-1.50;99.90
8633;DHT22;4354;49.832;10.746;2024-01-27T07:01:35;-1.70;99.90
8633;DHT22;4354;49.832;10.746;2024-01-27T07:04:02;-1.60;99.90
8633;DHT22;4354;49.832;10.746;2024-01-27T07:06:29;-1.60;99.90
8633;DHT22;4354;49.832;10.746;2024-01-27T07:08:56;-1.60;99.90
8633;DHT22;4354;49.832;10.746;2024-01-27T07:11:23;-1.60;99.90
8633;DHT22;4354;49.832;10.746;2024-01-27T07:13:50;-1.50;99.90
8633;DHT22;4354;49.832;10.746;2024-01-27T07:16:16;-1.50;99.90
8633;DHT22;4354;49.832;10.746;2024-01-27T07:18:43;-1.50;99.90
8633;DHT22;4354;49.832;10.746;2024-01-27T07:21:16;-1.40;99.90
8633;DHT22;4354;49.832;10.746;2024-01-27T07:23:44;-1.30;99.90
8633;DHT22;4354;49.832;10.746;2024-01-27T07:26:11;-1.30;99.90
8633;DHT22;4354;49.832;10.746;2024-01-27T07:28:38;-1.10;99.90
8633;DHT22;4354;49.832;10.746;2024-01-27T07:31:05;-1.00;99.90
8633;DHT22;4354;49.832;10.746;2024-01-27T07:33:32;-0.90;99.90
8633;DHT22;4354;49.832;10.746;2024-01-27T07:35:59;-0.90;99.90
8633;DHT22;4354;49.832;10.746;2024-01-27T07:38:26;-0.90;99.90
8633;DHT22;4354;49.832;10.746;2024-01-27T07:40:53;-0.80;99.90
8633;DHT22;4354;49.832;10.746;2024-01-27T07:43:20;-0.70;99.90
8633;DHT22;4354;49.832;10.746;2024-01-27T07:45:47;-0.70;99.90
8633;DHT22;4354;49.832;10.746;2024-01-27T07:48:14;-0.60;99.90
8633;DHT22;4354;49.832;10.746;2024-01-27T07:50:41;-0.50;99.90
8633;DHT22;4354;49.832;10.746;2024-01-27T07:53:12;-0.40;99.90
8633;DHT22;4354;49.832;10.746;2024-01-27T07:55:39;0.20;99.90
8633;DHT22;4354;49.832;10.746;2024-01-27T07:58:06;0.80;99.90
8633;DHT22;4354;49.832;10.746;2024-01-27T08:00:33;1.50;99.90
8633;DHT22;4354;49.832;10.746;2024-01-27T08:03:00;2.20;91.70
8633;DHT22;4354;49.832;10.746;2024-01-27T08:05:26;2.90;1.00
8633;DHT22;4354;49.832;10.746;2024-01-27T08:07:54;3.70;1.00
8633;DHT22;4354;49.832;10.746;2024-01-27T08:10:21;4.40;1.00
8633;DHT22;4354;49.832;10.746;2024-01-27T08:12:48;5.20;1.00
8633;DHT22;4354;49.832;10.746;2024-01-27T08:15:15;6.20;1.00
8633;DHT22;4354;49.832;10.746;2024-01-27T08:17:42;6.90;1.00
8633;DHT22;4354;49.832;10.746;2024-01-27T08:20:09;7.60;1.00
8633;DHT22;4354;49.832;10.746;2024-01-27T08:22:36;8.60;1.00
8633;DHT22;4354;49.832;10.746;2024-01-27T08:25:03;8.80;1.00
8633;DHT22;4354;49.832;10.746;2024-01-27T08:27:30;9.70;99.90
8633;DHT22;4354;49.832;10.746;2024-01-27T08:29:57;10.00;99.90
8633;DHT22;4354;49.832;10.746;2024-01-27T08:32:24;9.80;99.90
8633;DHT22;4354;49.832;10.746;2024-01-27T08:34:51;10.60;99.90
8633;DHT22;4354;49.832;10.746;2024-01-27T08:37:19;10.40;99.90
8633;DHT22;4354;49.832;10.746;2024-01-27T08:42:14;11.50;99.90
8633;DHT22;4354;49.832;10.746;2024-01-27T08:44:41;12.10;99.90
8633;DHT22;4354;49.832;10.746;2024-01-27T08:47:07;12.00;99.90
8633;DHT22;4354;49.832;10.746;2024-01-27T08:49:35;13.50;99.90
8633;DHT22;4354;49.832;10.746;2024-01-27T08:52:02;14.90;99.90
8633;DHT22;4354;49.832;10.746;2024-01-27T08:54:29;14.80;99.90
8633;DHT22;4354;49.832;10.746;2024-01-27T08:56:56;16.20;99.90
8633;DHT22;4354;49.832;10.746;2024-01-27T09:01:50;17.70;99.90
8633;DHT22;4354;49.832;10.746;2024-01-27T09:04:17;17.60;99.90
8633;DHT22;4354;49.832;10.746;2024-01-27T09:06:44;17.40;99.90
8633;DHT22;4354;49.832;10.746;2024-01-27T09:09:11;17.90;99.90
8633;DHT22;4354;49.832;10.746;2024-01-27T09:11:39;16.80;99.90
8633;DHT22;4354;49.832;10.746;2024-01-27T09:14:06;17.70;99.90
8633;DHT22;4354;49.832;10.746;2024-01-27T09:16:34;17.70;99.90
8633;DHT22;4354;49.832;10.746;2024-01-27T09:19:01;19.00;99.90
8633;DHT22;4354;49.832;10.746;2024-01-27T09:21:28;19.30;99.90
8633;DHT22;4354;49.832;10.746;2024-01-27T09:23:57;20.00;99.90
8633;DHT22;4354;49.832;10.746;2024-01-27T09:26:24;20.20;99.90
8633;DHT22;4354;49.832;10.746;2024-01-27T09:28:51;20.80;99.90
8633;DHT22;4354;49.832;10.746;2024-01-27T09:31:22;20.20;99.90
8633;DHT22;4354;49.832;10.746;2024-01-27T09:33:53;20.20;99.90
8633;DHT22;4354;49.832;10.746;2024-01-27T09:36:20;19.70;99.90
8633;DHT22;4354;49.832;10.746;2024-01-27T09:38:48;20.40;99.90
8633;DHT22;4354;49.832;10.746;2024-01-27T09:41:15;20.10;99.90
8633;DHT22;4354;49.832;10.746;2024-01-27T09:43:43;20.10;99.90
8633;DHT22;4354;49.832;10.746;2024-01-27T09:46:15;20.50;99.90
8633;DHT22;4354;49.832;10.746;2024-01-27T09:48:43;20.80;99.90
8633;DHT22;4354;49.832;10.746;2024-01-27T09:51:11;20.50;99.90
8633;DHT22;4354;49.832;10.746;2024-01-27T09:53:38;20.50;99.90
8633;DHT22;4354;49.832;10.746;2024-01-27T09:56:06;20.40;99.90
8633;DHT22;4354;49.832;10.746;2024-01-27T09:58:33;21.50;99.90
8633;DHT22;4354;49.832;10.746;2024-01-27T10:01:01;21.80;99.90
8633;DHT22;4354;49.832;10.746;2024-01-27T10:03:28;22.80;99.90
8633;DHT22;4354;49.832;10.746;2024-01-27T10:05:56;22.60;99.90
8633;DHT22;4354;49.832;10.746;2024-01-27T10:08:24;22.80;99.90
8633;DHT22;4354;49.832;10.746;2024-01-27T10:10:54;22.50;99.90
8633;DHT22;4354;49.832;10.746;2024-01-27T10:13:22;22.20;99.90
8633;DHT22;4354;49.832;10.746;2024-01-27T10:16:07;22.00;99.90
8633;DHT22;4354;49.832;10.746;2024-01-27T10:18:35;22.50;99.90
8633;DHT22;4354;49.832;10.746;2024-01-27T10:21:16;22.30;99.90
8633;DHT22;4354;49.832;10.746;2024-01-27T10:23:43;22.50;99.90
8633;DHT22;4354;49.832;10.746;2024-01-27T10:26:11;22.50;99.90
8633;DHT22;4354;49.832;10.746;2024-01-27T10:28:38;22.70;99.90
8633;DHT22;4354;49.832;10.746;2024-01-27T10:31:12;22.70;99.90
8633;DHT22;4354;49.832;10.746;2024-01-27T10:33:39;21.90;99.90
8633;DHT22;4354;49.832;10.746;2024-01-27T10:36:07;22.10;99.90
8633;DHT22;4354;49.832;10.746;2024-01-27T10:38:40;22.10;99.90
8633;DHT22;4354;49.832;10.746;2024-01-27T10:41:10;21.90;99.90
8633;DHT22;4354;49.832;10.746;2024-01-27T10:43:38;22.50;99.90
8633;DHT22;4354;49.832;10.746;2024-01-27T10:46:06;21.90;99.90
8633;DHT22;4354;49.832;10.746;2024-01-27T10:48:37;20.90;99.90
8633;DHT22;4354;49.832;10.746;2024-01-27T10:51:08;20.80;99.90
8633;DHT22;4354;49.832;10.746;2024-01-27T10:53:36;20.60;99.90
8633;DHT22;4354;49.832;10.746;2024-01-27T10:56:04;19.90;99.90
8633;DHT22;4354;49.832;10.746;2024-01-27T10:58:36;19.60;99.90
8633;DHT22;4354;49.832;10.746;2024-01-27T11:01:09;18.80;99.90
8633;DHT22;4354;49.832;10.746;2024-01-27T11:03:40;18.60;99.90
8633;DHT22;4354;49.832;10.746;2024-01-27T11:06:08;18.00;99.90
8633;DHT22;4354;49.832;10.746;2024-01-27T11:08:38;17.90;99.90
8633;DHT22;4354;49.832;10.746;2024-01-27T11:11:10;17.70;99.90
8633;DHT22;4354;49.832;10.746;2024-01-27T11:13:37;15.90;99.90
8633;DHT22;4354;49.832;10.746;2024-01-27T11:16:15;15.30;99.90
8633;DHT22;4354;49.832;10.746;2024-01-27T11:18:43;14.20;99.90
8633;DHT22;4354;49.832;10.746;2024-01-27T11:21:16;13.60;99.90
8633;DHT22;4354;49.832;10.746;2024-01-27T11:23:44;14.60;99.90
8633;DHT22;4354;49.832;10.746;2024-01-27T11:26:21;14.30;99.90
8633;DHT22;4354;49.832;10.746;2024-01-27T11:28:49;14.90;99.90
8633;DHT22;4354;49.832;10.746;2024-01-27T11:31:18;14.70;99.90
8633;DHT22;4354;49.832;10.746;2024-01-27T11:33:49;15.70;99.90
8633;DHT22;4354;49.832;10.746;2024-01-27T11:36:23;15.10;99.90
8633;DHT22;4354;49.832;10.746;2024-01-27T11:38:52;15.50;99.90
8633;DHT22;4354;49.832;10.746;2024-01-27T11:41:26;15.80;99.90
8633;DHT22;4354;49.832;10.746;2024-01-27T11:43:55;15.60;99.90
8633;DHT22;4354;49.832;10.746;2024-01-27T11:46:22;15.40;99.90
8633;DHT22;4354;49.832;10.746;2024-01-27T11:48:49;15.90;99.90
8633;DHT22;4354;49.832;10.746;2024-01-27T11:51:17;15.50;99.90
8633;DHT22;4354;49.832;10.746;2024-01-27T11:53:45;15.40;99.90
8633;DHT22;4354;49.832;10.746;2024-01-27T11:56:13;15.30;99.90
8633;DHT22;4354;49.832;10.746;2024-01-27T11:58:47;15.70;99.90
8633;DHT22;4354;49.832;10.746;2024-01-27T12:01:15;14.70;99.90
8633;DHT22;4354;49.832;10.746;2024-01-27T12:03:42;15.20;99.90
8633;DHT22;4354;49.832;10.746;2024-01-27T12:06:11;14.90;99.90
8633;DHT22;4354;49.832;10.746;2024-01-27T12:08:41;15.10;99.90
8633;DHT22;4354;49.832;10.746;2024-01-27T12:11:15;15.20;99.90
8633;DHT22;4354;49.832;10.746;2024-01-27T12:13:46;14.70;99.90
8633;DHT22;4354;49.832;10.746;2024-01-27T12:16:13;14.70;99.90
8633;DHT22;4354;49.832;10.746;2024-01-27T12:18:39;14.80;99.90
8633;DHT22;4354;49.832;10.746;2024-01-27T12:21:06;14.20;99.90
8633;DHT22;4354;49.832;10.746;2024-01-27T12:23:33;14.70;99.90
8633;DHT22;4354;49.832;10.746;2024-01-27T12:26:00;14.40;99.90
8633;DHT22;4354;49.832;10.746;2024-01-27T12:28:27;13.70;99.90
8633;DHT22;4354;49.832;10.746;2024-01-27T12:30:54;13.70;99.90
8633;DHT22;4354;49.832;10.746;2024-01-27T12:33:21;13.20;99.90
8633;DHT22;4354;49.832;10.746;2024-01-27T12:35:52;13.50;99.90
8633;DHT22;4354;49.832;10.746;2024-01-27T12:38:22;13.40;99.90
8633;DHT22;4354;49.832;10.746;2024-01-27T12:40:49;13.50;99.90
8633;DHT22;4354;49.832;10.746;2024-01-27T12:43:16;12.90;99.90
8633;DHT22;4354;49.832;10.746;2024-01-27T12:45:43;12.70;99.90
8633;DHT22;4354;49.832;10.746;2024-01-27T12:48:10;12.20;99.90
8633;DHT22;4354;49.832;10.746;2024-01-27T12:50:37;12.10;99.90
8633;DHT22;4354;49.832;10.746;2024-01-27T12:53:04;12.00;99.90
8633;DHT22;4354;49.832;10.746;2024-01-27T12:55:31;11.40;99.90
8633;DHT22;4354;49.832;10.746;2024-01-27T12:57:58;11.30;99.90
8633;DHT22;4354;49.832;10.746;2024-01-27T13:00:25;11.10;99.90
8633;DHT22;4354;49.832;10.746;2024-01-27T13:02:52;10.90;99.90
8633;DHT22;4354;49.832;10.746;2024-01-27T13:05:19;10.80;99.90
8633;DHT22;4354;49.832;10.746;2024-01-27T13:07:47;10.80;99.90
8633;DHT22;4354;49.832;10.746;2024-01-27T13:10:15;10.80;99.90
8633;DHT22;4354;49.832;10.746;2024-01-27T13:12:43;10.60;99.90
8633;DHT22;4354;49.832;10.746;2024-01-27T13:15:11;10.20;99.90
8633;DHT22;4354;49.832;10.746;2024-01-27T13:17:38;10.00;99.90
8633;DHT22;4354;49.832;10.746;2024-01-27T13:20:06;9.80;99.90
8633;DHT22;4354;49.832;10.746;2024-01-27T13:22:33;9.60;99.90
8633;DHT22;4354;49.832;10.746;2024-01-27T13:24:59;9.30;99.90
8633;DHT22;4354;49.832;10.746;2024-01-27T13:27:31;9.20;99.90
8633;DHT22;4354;49.832;10.746;2024-01-27T13:29:58;9.10;99.90
8633;DHT22;4354;49.832;10.746;2024-01-27T13:32:25;9.10;99.90
8633;DHT22;4354;49.832;10.746;2024-01-27T13:34:53;8.90;99.90
8633;DHT22;4354;49.832;10.746;2024-01-27T13:37:20;8.90;99.90
8633;DHT22;4354;49.832;10.746;2024-01-27T13:39:48;8.60;99.90
8633;DHT22;4354;49.832;10.746;2024-01-27T13:42:15;8.50;99.90
8633;DHT22;4354;49.832;10.746;2024-01-27T13:44:42;8.50;99.90
8633;DHT22;4354;49.832;10.746;2024-01-27T13:47:09;8.40;99.90
8633;DHT22;4354;49.832;10.746;2024-01-27T13:49:36;8.50;99.90
8633;DHT22;4354;49.832;10.746;2024-01-27T13:52:05;8.50;99.90
8633;DHT22;4354;49.832;10.746;2024-01-27T13:54:33;8.50;99.90
8633;DHT22;4354;49.832;10.746;2024-01-27T13:57:02;8.40;99.90
8633;DHT22;4354;49.832;10.746;2024-01-27T13:59:29;8.30;99.90
8633;DHT22;4354;49.832;10.746;2024-01-27T14:01:56;8.20;99.90
8633;DHT22;4354;49.832;10.746;2024-01-27T14:04:25;8.10;99.90
8633;DHT22;4354;49.832;10.746;2024-01-27T14:06:53;8.00;99.90
8633;DHT22;4354;49.832;10.746;2024-01-27T14:09:20;7.90;99.90
8633;DHT22;4354;49.832;10.746;2024-01-27T14:11:48;7.80;99.90
8633;DHT22;4354;49.832;10.746;2024-01-27T14:14:15;7.70;99.90
8633;DHT22;4354;49.832;10.746;2024-01-27T14:16:43;7.60;99.90
8633;DHT22;4354;49.832;10.746;2024-01-27T14:19:10;7.60;99.90
8633;DHT22;4354;49.832;10.746;2024-01-27T14:21:37;7.50;99.90
8633;DHT22;4354;49.832;10.746;2024-01-27T14:24:07;7.40;99.90
8633;DHT22;4354;49.832;10.746;2024-01-27T14:26:35;7.40;99.90
8633;DHT22;4354;49.832;10.746;2024-01-27T14:29:03;7.30;99.90
8633;DHT22;4354;49.832;10.746;2024-01-27T14:31:31;7.20;99.90
8633;DHT22;4354;49.832;10.746;2024-01-27T14:33:57;7.10;99.90
8633;DHT22;4354;49.832;10.746;2024-01-27T14:36:25;7.00;99.90
8633;DHT22;4354;49.832;10.746;2024-01-27T14:38:52;7.00;99.90
8633;DHT22;4354;49.832;10.746;2024-01-27T14:41:20;6.90;99.90
8633;DHT22;4354;49.832;10.746;2024-01-27T14:43:47;6.80;99.90
8633;DHT22;4354;49.832;10.746;2024-01-27T14:46:17;6.80;99.90
8633;DHT22;4354;49.832;10.746;2024-01-27T14:48:43;6.70;99.90
8633;DHT22;4354;49.832;10.746;2024-01-27T14:51:12;6.70;99.90
8633;DHT22;4354;49.832;10.746;2024-01-27T14:53:39;6.60;99.90
8633;DHT22;4354;49.832;10.746;2024-01-27T14:56:07;6.50;99.90
8633;DHT22;4354;49.832;10.746;2024-01-27T14:58:34;6.50;99.90
8633;DHT22;4354;49.832;10.746;2024-01-27T15:01:00;6.40;99.90
8633;DHT22;4354;49.832;10.746;2024-01-27T15:03:27;6.30;99.90
8633;DHT22;4354;49.832;10.746;2024-01-27T15:05:54;6.20;99.90
8633;DHT22;4354;49.832;10.746;2024-01-27T15:08:22;6.10;99.90
8633;DHT22;4354;49.832;10.746;2024-01-27T15:10:48;6.00;99.90
8633;DHT22;4354;49.832;10.746;2024-01-27T15:13:15;5.90;99.90
8633;DHT22;4354;49.832;10.746;2024-01-27T15:15:46;5.80;99.90
8633;DHT22;4354;49.832;10.746;2024-01-27T15:18:13;5.70;99.90
8633;DHT22;4354;49.832;10.746;2024-01-27T15:20:42;5.60;99.90
8633;DHT22;4354;49.832;10.746;2024-01-27T15:23:09;5.50;99.90
8633;DHT22;4354;49.832;10.746;2024-01-27T15:25:35;5.40;99.90
8633;DHT22;4354;49.832;10.746;2024-01-27T15:28:03;5.30;99.90
8633;DHT22;4354;49.832;10.746;2024-01-27T15:30:31;5.20;99.90
8633;DHT22;4354;49.832;10.746;2024-01-27T15:32:57;5.10;99.90
8633;DHT22;4354;49.832;10.746;2024-01-27T15:35:24;5.00;99.90
8633;DHT22;4354;49.832;10.746;2024-01-27T15:37:51;4.90;99.90
8633;DHT22;4354;49.832;10.746;2024-01-27T15:40:18;4.70;99.90
8633;DHT22;4354;49.832;10.746;2024-01-27T15:42:45;4.60;1.00
8633;DHT22;4354;49.832;10.746;2024-01-27T15:45:11;4.50;1.00
8633;DHT22;4354;49.832;10.746;2024-01-27T15:47:39;4.50;1.00
8633;DHT22;4354;49.832;10.746;2024-01-27T15:50:09;4.30;1.00
8633;DHT22;4354;49.832;10.746;2024-01-27T15:52:39;4.20;1.00
8633;DHT22;4354;49.832;10.746;2024-01-27T15:55:06;4.00;1.00
8633;DHT22;4354;49.832;10.746;2024-01-27T15:57:34;3.80;99.90
8633;DHT22;4354;49.832;10.746;2024-01-27T16:00:01;3.80;1.00
8633;DHT22;4354;49.832;10.746;2024-01-27T16:02:28;3.60;17.40